sensor_id;sensor_type;location;lat;lon;timestamp;pressure;altitude;pressure_sealevel;temperature;humidity
68197;BME280;55019;49.382;11.358;2023-04-09T00:01:54;97294.63;;;5.53;94.26
68197;BME280;55019;49.382;11.358;2023-04-09T00:04:19;97304.41;;;5.48;94.60
68197;BME280;55019;49.382;11.358;2023-04-09T00:06:47;97294.25;;;5.46;95.03
68197;BME280;55019;49.382;11.358;2023-04-09T00:09:12;97308.59;;;5.38;94.83
68197;BME280;55019;49.382;11.358;2023-04-09T00:11:38;97298.56;;;5.46;95.27
68197;BME280;55019;49.382;11.358;2023-04-09T00:14:04;97291.13;;;5.43;94.92
68197;BME280;55019;49.382;11.358;2023-04-09T00:16:29;97299.59;;;5.32;95.84
68197;BME280;55019;49.382;11.358;2023-04-09T00:18:55;97292.75;;;5.44;95.24
68197;BME280;55019;49.382;11.358;2023-04-09T00:21:21;97288.78;;;5.40;95.53
68197;BME280;55019;49.382;11.358;2023-04-09T00:23:46;97294.25;;;5.35;95.54
68197;BME280;55019;49.382;11.358;2023-04-09T00:26:12;97289.13;;;5.35;95.61
68197;BME280;55019;49.382;11.358;2023-04-09T00:28:38;97293.22;;;5.38;95.53
68197;BME280;55019;49.382;11.358;2023-04-09T00:31:05;97291.78;;;5.34;95.78
68197;BME280;55019;49.382;11.358;2023-04-09T00:33:30;97290.41;;;5.41;95.57
68197;BME280;55019;49.382;11.358;2023-04-09T00:35:56;97293.28;;;5.25;96.13
68197;BME280;55019;49.382;11.358;2023-04-09T00:38:22;97292.81;;;5.20;96.04
68197;BME280;55019;49.382;11.358;2023-04-09T00:40:48;97297.34;;;5.28;95.81
68197;BME280;55019;49.382;11.358;2023-04-09T00:43:18;97296.09;;;5.22;95.94
68197;BME280;55019;49.382;11.358;2023-04-09T00:45:44;97298.66;;;5.22;95.88
68197;BME280;55019;49.382;11.358;2023-04-09T00:48:11;97290.81;;;5.24;95.63
68197;BME280;55019;49.382;11.358;2023-04-09T00:50:37;97292.47;;;5.25;95.22
68197;BME280;55019;49.382;11.358;2023-04-09T00:53:06;97298.50;;;5.24;94.96
68197;BME280;55019;49.382;11.358;2023-04-09T00:55:34;97288.03;;;5.27;94.41
68197;BME280;55019;49.382;11.358;2023-04-09T00:58:00;97298.66;;;5.22;94.86
68197;BME280;55019;49.382;11.358;2023-04-09T01:00:30;97295.72;;;5.27;94.60
68197;BME280;55019;49.382;11.358;2023-04-09T01:02:56;97303.41;;;5.27;94.67
68197;BME280;55019;49.382;11.358;2023-04-09T01:11:33;97286.16;;;5.18;94.72
68197;BME280;55019;49.382;11.358;2023-04-09T01:14:07;97284.53;;;5.17;94.56
68197;BME280;55019;49.382;11.358;2023-04-09T01:16:41;97287.78;;;5.19;94.84
68197;BME280;55019;49.382;11.358;2023-04-09T01:19:18;97281.63;;;5.21;94.24
68197;BME280;55019;49.382;11.358;2023-04-09T01:21:46;97282.44;;;5.22;94.24
68197;BME280;55019;49.382;11.358;2023-04-09T01:27:04;97292.47;;;5.25;93.21
68197;BME280;55019;49.382;11.358;2023-04-09T01:29:50;97282.91;;;5.16;93.49
68197;BME280;55019;49.382;11.358;2023-04-09T01:32:18;97290.59;;;5.16;93.35
68197;BME280;55019;49.382;11.358;2023-04-09T01:34:46;97292.69;;;5.22;92.94
68197;BME280;55019;49.382;11.358;2023-04-09T01:37:14;97291.88;;;5.21;93.21
68197;BME280;55019;49.382;11.358;2023-04-09T01:39:41;97294.31;;;5.23;92.66
68197;BME280;55019;49.382;11.358;2023-04-09T01:42:08;97296.88;;;5.12;92.51
68197;BME280;55019;49.382;11.358;2023-04-09T01:44:39;97292.63;;;5.00;93.11
68197;BME280;55019;49.382;11.358;2023-04-09T01:47:07;97302.63;;;4.92;94.10
68197;BME280;55019;49.382;11.358;2023-04-09T01:49:34;97298.00;;;4.97;94.11
68197;BME280;55019;49.382;11.358;2023-04-09T01:52:01;97294.34;;;4.88;94.21
68197;BME280;55019;49.382;11.358;2023-04-09T01:54:27;97291.75;;;4.77;94.47
68197;BME280;55019;49.382;11.358;2023-04-09T01:56:52;97282.50;;;4.64;94.90
68197;BME280;55019;49.382;11.358;2023-04-09T01:59:18;97287.88;;;4.72;94.66
68197;BME280;55019;49.382;11.358;2023-04-09T02:01:46;97300.56;;;4.73;94.83
68197;BME280;55019;49.382;11.358;2023-04-09T02:04:33;97287.38;;;4.67;94.84
68197;BME280;55019;49.382;11.358;2023-04-09T02:09:30;97294.41;;;4.52;95.22
68197;BME280;55019;49.382;11.358;2023-04-09T02:12:01;97296.47;;;4.47;95.45
68197;BME280;55019;49.382;11.358;2023-04-09T02:14:28;97296.00;;;4.42;95.34
68197;BME280;55019;49.382;11.358;2023-04-09T02:16:57;97295.63;;;4.36;95.33
68197;BME280;55019;49.382;11.358;2023-04-09T02:19:22;97290.75;;;4.21;95.58
68197;BME280;55019;49.382;11.358;2023-04-09T02:21:48;97294.63;;;4.26;95.07
68197;BME280;55019;49.382;11.358;2023-04-09T02:24:14;97293.03;;;4.13;94.77
68197;BME280;55019;49.382;11.358;2023-04-09T02:26:39;97300.03;;;3.98;94.69
68197;BME280;55019;49.382;11.358;2023-04-09T02:29:05;97287.38;;;3.84;95.49
68197;BME280;55019;49.382;11.358;2023-04-09T02:31:31;97283.06;;;3.85;94.72
68197;BME280;55019;49.382;11.358;2023-04-09T02:33:56;97286.19;;;3.65;95.66
68197;BME280;55019;49.382;11.358;2023-04-09T02:36:22;97288.13;;;3.61;95.85
68197;BME280;55019;49.382;11.358;2023-04-09T02:38:48;97292.31;;;3.62;96.09
68197;BME280;55019;49.382;11.358;2023-04-09T02:41:13;97308.34;;;3.64;95.03
68197;BME280;55019;49.382;11.358;2023-04-09T02:43:39;97301.94;;;3.59;94.68
68197;BME280;55019;49.382;11.358;2023-04-09T02:46:06;97300.28;;;3.45;95.16
68197;BME280;55019;49.382;11.358;2023-04-09T02:48:32;97305.41;;;3.45;95.35
68197;BME280;55019;49.382;11.358;2023-04-09T02:50:58;97308.56;;;3.36;96.02
68197;BME280;55019;49.382;11.358;2023-04-09T02:53:24;97307.03;;;3.34;95.84
68197;BME280;55019;49.382;11.358;2023-04-09T02:55:50;97299.28;;;3.35;96.11
68197;BME280;55019;49.382;11.358;2023-04-09T02:58:16;97305.19;;;3.11;96.61
68197;BME280;55019;49.382;11.358;2023-04-09T03:00:41;97306.19;;;3.08;96.72
68197;BME280;55019;49.382;11.358;2023-04-09T03:03:07;97304.25;;;3.12;96.32
68197;BME280;55019;49.382;11.358;2023-04-09T03:05:33;97308.22;;;3.03;96.13
68197;BME280;55019;49.382;11.358;2023-04-09T03:08:00;97301.88;;;2.96;95.82
68197;BME280;55019;49.382;11.358;2023-04-09T03:10:26;97300.72;;;2.88;95.78
68197;BME280;55019;49.382;11.358;2023-04-09T03:12:52;97307.50;;;2.63;96.44
68197;BME280;55019;49.382;11.358;2023-04-09T03:15:17;97308.94;;;2.67;96.51
68197;BME280;55019;49.382;11.358;2023-04-09T03:17:43;97294.53;;;2.66;96.29
68197;BME280;55019;49.382;11.358;2023-04-09T03:20:09;97297.81;;;2.68;96.18
68197;BME280;55019;49.382;11.358;2023-04-09T03:22:37;97300.97;;;2.59;96.25
68197;BME280;55019;49.382;11.358;2023-04-09T03:25:08;97302.53;;;2.47;96.96
68197;BME280;55019;49.382;11.358;2023-04-09T03:27:34;97291.34;;;2.50;96.61
68197;BME280;55019;49.382;11.358;2023-04-09T03:30:01;97300.91;;;2.46;96.76
68197;BME280;55019;49.382;11.358;2023-04-09T03:32:34;97296.19;;;2.40;97.95
68197;BME280;55019;49.382;11.358;2023-04-09T03:35:00;97305.59;;;2.40;98.69
68197;BME280;55019;49.382;11.358;2023-04-09T03:37:26;97305.97;;;2.34;99.25
68197;BME280;55019;49.382;11.358;2023-04-09T03:39:53;97308.66;;;2.45;98.91
68197;BME280;55019;49.382;11.358;2023-04-09T03:42:19;97305.59;;;2.40;98.26
68197;BME280;55019;49.382;11.358;2023-04-09T03:44:47;97310.69;;;2.40;98.72
68197;BME280;55019;49.382;11.358;2023-04-09T03:47:18;97311.09;;;2.34;98.46
68197;BME280;55019;49.382;11.358;2023-04-09T03:49:44;97309.63;;;2.30;98.46
68197;BME280;55019;49.382;11.358;2023-04-09T03:52:23;97309.78;;;2.41;97.59
68197;BME280;55019;49.382;11.358;2023-04-09T03:54:58;97298.78;;;2.26;97.63
68197;BME280;55019;49.382;11.358;2023-04-09T03:57:25;97311.44;;;2.28;97.26
68197;BME280;55019;49.382;11.358;2023-04-09T03:59:53;97304.66;;;2.14;97.23
68197;BME280;55019;49.382;11.358;2023-04-09T04:02:20;97311.69;;;1.97;97.62
68197;BME280;55019;49.382;11.358;2023-04-09T04:04:54;97310.75;;;2.12;97.21
68197;BME280;55019;49.382;11.358;2023-04-09T04:07:23;97301.84;;;2.05;97.13
68197;BME280;55019;49.382;11.358;2023-04-09T04:09:54;97307.78;;;1.91;97.81
68197;BME280;55019;49.382;11.358;2023-04-09T04:12:19;97304.41;;;1.77;97.03
68197;BME280;55019;49.382;11.358;2023-04-09T04:15:08;97314.31;;;1.95;96.91
68197;BME280;55019;49.382;11.358;2023-04-09T04:17:43;97317.06;;;1.92;96.89
68197;BME280;55019;49.382;11.358;2023-04-09T04:20:17;97321.25;;;1.79;97.20
68197;BME280;55019;49.382;11.358;2023-04-09T04:23:09;97317.81;;;1.66;97.77
68197;BME280;55019;49.382;11.358;2023-04-09T04:25:41;97315.88;;;1.70;97.94
68197;BME280;55019;49.382;11.358;2023-04-09T04:28:09;97321.91;;;1.69;97.84
68197;BME280;55019;49.382;11.358;2023-04-09T04:30:41;97320.53;;;1.77;97.30
68197;BME280;55019;49.382;11.358;2023-04-09T04:33:08;97327.53;;;1.74;96.83
68197;BME280;55019;49.382;11.358;2023-04-09T04:35:43;97327.34;;;1.63;98.17
68197;BME280;55019;49.382;11.358;2023-04-09T04:38:22;97333.19;;;1.65;98.62
68197;BME280;55019;49.382;11.358;2023-04-09T04:40:48;97328.91;;;1.65;97.78
68197;BME280;55019;49.382;11.358;2023-04-09T04:43:14;97334.94;;;1.64;98.27
68197;BME280;55019;49.382;11.358;2023-04-09T04:45:40;97330.63;;;1.65;98.22
68197;BME280;55019;49.382;11.358;2023-04-09T04:48:10;97333.09;;;1.66;98.46
68197;BME280;55019;49.382;11.358;2023-04-09T04:50:36;97327.34;;;1.63;98.12
68197;BME280;55019;49.382;11.358;2023-04-09T04:53:07;97332.56;;;1.75;98.44
68197;BME280;55019;49.382;11.358;2023-04-09T04:55:43;97334.38;;;1.73;98.51
68197;BME280;55019;49.382;11.358;2023-04-09T04:58:12;97333.56;;;1.87;98.87
68197;BME280;55019;49.382;11.358;2023-04-09T05:00:45;97339.28;;;1.90;98.51
68197;BME280;55019;49.382;11.358;2023-04-09T05:03:12;97333.72;;;1.98;98.61
68197;BME280;55019;49.382;11.358;2023-04-09T05:05:58;97336.47;;;1.81;98.85
68197;BME280;55019;49.382;11.358;2023-04-09T05:08:28;97340.47;;;1.99;98.49
68197;BME280;55019;49.382;11.358;2023-04-09T05:10:56;97336.63;;;2.06;97.98
68197;BME280;55019;49.382;11.358;2023-04-09T05:13:27;97340.00;;;1.92;98.23
68197;BME280;55019;49.382;11.358;2023-04-09T05:15:53;97343.72;;;2.01;98.36
68197;BME280;55019;49.382;11.358;2023-04-09T05:18:18;97342.72;;;2.03;98.24
68197;BME280;55019;49.382;11.358;2023-04-09T05:20:45;97340.16;;;2.03;98.38
68197;BME280;55019;49.382;11.358;2023-04-09T05:23:11;97323.41;;;2.13;99.04
68197;BME280;55019;49.382;11.358;2023-04-09T05:25:42;97336.22;;;2.26;98.94
68197;BME280;55019;49.382;11.358;2023-04-09T05:28:16;97329.28;;;2.42;98.58
68197;BME280;55019;49.382;11.358;2023-04-09T05:30:46;97329.41;;;2.53;98.59
68197;BME280;55019;49.382;11.358;2023-04-09T05:33:12;97330.78;;;2.71;98.26
68197;BME280;55019;49.382;11.358;2023-04-09T05:35:38;97340.28;;;2.69;98.18
68197;BME280;55019;49.382;11.358;2023-04-09T05:38:04;97332.47;;;2.84;97.82
68197;BME280;55019;49.382;11.358;2023-04-09T05:40:30;97330.88;;;2.95;97.02
68197;BME280;55019;49.382;11.358;2023-04-09T05:42:56;97333.75;;;3.03;97.18
68197;BME280;55019;49.382;11.358;2023-04-09T05:45:31;97337.03;;;3.05;96.47
68197;BME280;55019;49.382;11.358;2023-04-09T05:47:57;97328.34;;;3.08;96.99
68197;BME280;55019;49.382;11.358;2023-04-09T05:50:23;97336.94;;;3.19;97.00
68197;BME280;55019;49.382;11.358;2023-04-09T05:52:51;97342.91;;;3.32;96.58
68197;BME280;55019;49.382;11.358;2023-04-09T05:55:18;97332.16;;;3.40;96.25
68197;BME280;55019;49.382;11.358;2023-04-09T05:57:55;97338.00;;;3.54;95.78
68197;BME280;55019;49.382;11.358;2023-04-09T06:00:21;97335.75;;;3.62;95.74
68197;BME280;55019;49.382;11.358;2023-04-09T06:02:48;97344.22;;;3.75;95.69
68197;BME280;55019;49.382;11.358;2023-04-09T06:05:14;97349.03;;;3.67;95.00
68197;BME280;55019;49.382;11.358;2023-04-09T06:07:40;97354.34;;;3.89;95.08
68197;BME280;55019;49.382;11.358;2023-04-09T06:10:06;97345.34;;;3.96;94.25
68197;BME280;55019;49.382;11.358;2023-04-09T06:12:34;97340.22;;;4.09;94.18
68197;BME280;55019;49.382;11.358;2023-04-09T06:14:59;97338.94;;;4.14;94.12
68197;BME280;55019;49.382;11.358;2023-04-09T06:17:26;97343.22;;;4.26;93.43
68197;BME280;55019;49.382;11.358;2023-04-09T06:19:52;97349.03;;;4.28;93.28
68197;BME280;55019;49.382;11.358;2023-04-09T06:22:18;97348.22;;;4.40;92.74
68197;BME280;55019;49.382;11.358;2023-04-09T06:24:44;97348.28;;;4.51;91.32
68197;BME280;55019;49.382;11.358;2023-04-09T06:27:10;97349.91;;;4.52;92.11
68197;BME280;55019;49.382;11.358;2023-04-09T06:29:35;97354.56;;;4.70;91.39
68197;BME280;55019;49.382;11.358;2023-04-09T06:32:01;97350.78;;;4.63;91.16
68197;BME280;55019;49.382;11.358;2023-04-09T06:34:27;97354.16;;;4.64;90.47
68197;BME280;55019;49.382;11.358;2023-04-09T06:36:52;97352.53;;;4.86;90.32
68197;BME280;55019;49.382;11.358;2023-04-09T06:39:18;97348.28;;;4.98;90.12
68197;BME280;55019;49.382;11.358;2023-04-09T06:41:44;97354.63;;;5.16;89.25
68197;BME280;55019;49.382;11.358;2023-04-09T06:44:23;97357.22;;;5.27;88.86
68197;BME280;55019;49.382;11.358;2023-04-09T06:46:49;97356.69;;;5.45;88.01
68197;BME280;55019;49.382;11.358;2023-04-09T06:49:14;97365.31;;;5.44;85.71
68197;BME280;55019;49.382;11.358;2023-04-09T06:51:40;97360.44;;;5.52;85.84
68197;BME280;55019;49.382;11.358;2023-04-09T06:54:06;97365.06;;;5.47;86.96
68197;BME280;55019;49.382;11.358;2023-04-09T06:56:32;97362.25;;;5.84;86.05
68197;BME280;55019;49.382;11.358;2023-04-09T06:58:58;97360.41;;;6.08;86.13
68197;BME280;55019;49.382;11.358;2023-04-09T07:01:24;97369.97;;;6.28;84.20
68197;BME280;55019;49.382;11.358;2023-04-09T07:03:51;97368.09;;;6.30;86.28
68197;BME280;55019;49.382;11.358;2023-04-09T07:06:17;97375.09;;;6.28;85.95
68197;BME280;55019;49.382;11.358;2023-04-09T07:08:44;97383.22;;;6.66;84.80
68197;BME280;55019;49.382;11.358;2023-04-09T07:11:09;97380.88;;;7.16;84.75
68197;BME280;55019;49.382;11.358;2023-04-09T07:13:35;97371.16;;;7.40;80.56
68197;BME280;55019;49.382;11.358;2023-04-09T07:16:01;97382.97;;;7.43;81.92
68197;BME280;55019;49.382;11.358;2023-04-09T07:18:26;97381.19;;;7.23;80.95
68197;BME280;55019;49.382;11.358;2023-04-09T07:20:52;97389.63;;;7.66;80.48
68197;BME280;55019;49.382;11.358;2023-04-09T07:23:18;97379.59;;;7.63;78.35
68197;BME280;55019;49.382;11.358;2023-04-09T07:25:44;97389.75;;;8.15;77.34
68197;BME280;55019;49.382;11.358;2023-04-09T07:28:10;97390.97;;;8.41;73.68
68197;BME280;55019;49.382;11.358;2023-04-09T07:30:36;97387.00;;;8.27;72.22
68197;BME280;55019;49.382;11.358;2023-04-09T07:33:02;97383.28;;;8.50;73.44
68197;BME280;55019;49.382;11.358;2023-04-09T07:35:28;97381.47;;;8.80;71.43
68197;BME280;55019;49.382;11.358;2023-04-09T07:37:53;97388.59;;;9.54;71.39
68197;BME280;55019;49.382;11.358;2023-04-09T07:40:20;97387.59;;;9.08;69.76
68197;BME280;55019;49.382;11.358;2023-04-09T07:42:45;97381.53;;;9.28;72.14
68197;BME280;55019;49.382;11.358;2023-04-09T07:45:11;97378.00;;;9.57;66.46
68197;BME280;55019;49.382;11.358;2023-04-09T07:47:37;97383.78;;;9.78;65.61
68197;BME280;55019;49.382;11.358;2023-04-09T07:50:05;97386.25;;;9.70;65.85
68197;BME280;55019;49.382;11.358;2023-04-09T07:52:31;97381.38;;;9.67;65.29
68197;BME280;55019;49.382;11.358;2023-04-09T07:54:57;97386.19;;;10.44;62.86
68197;BME280;55019;49.382;11.358;2023-04-09T07:57:23;97381.75;;;10.37;63.57
68197;BME280;55019;49.382;11.358;2023-04-09T07:59:49;97388.56;;;9.73;59.51
68197;BME280;55019;49.382;11.358;2023-04-09T08:02:15;97384.50;;;9.71;61.01
68197;BME280;55019;49.382;11.358;2023-04-09T08:04:40;97379.53;;;10.15;61.44
68197;BME280;55019;49.382;11.358;2023-04-09T08:07:06;97388.41;;;10.93;59.56
68197;BME280;55019;49.382;11.358;2023-04-09T08:09:32;97378.66;;;11.22;58.22
68197;BME280;55019;49.382;11.358;2023-04-09T08:11:58;97376.91;;;11.75;55.93
68197;BME280;55019;49.382;11.358;2023-04-09T08:14:23;97380.72;;;12.22;55.43
68197;BME280;55019;49.382;11.358;2023-04-09T08:16:50;97377.56;;;12.02;53.67
68197;BME280;55019;49.382;11.358;2023-04-09T08:19:16;97376.28;;;11.29;56.17
68197;BME280;55019;49.382;11.358;2023-04-09T08:21:42;97379.03;;;11.27;56.13
68197;BME280;55019;49.382;11.358;2023-04-09T08:24:09;97383.06;;;11.99;54.73
68197;BME280;55019;49.382;11.358;2023-04-09T08:26:39;97387.16;;;12.43;55.32
68197;BME280;55019;49.382;11.358;2023-04-09T08:29:05;97381.94;;;12.35;51.63
68197;BME280;55019;49.382;11.358;2023-04-09T08:31:31;97387.94;;;11.59;53.76
68197;BME280;55019;49.382;11.358;2023-04-09T08:33:57;97380.72;;;11.71;54.46
68197;BME280;55019;49.382;11.358;2023-04-09T08:36:23;97386.38;;;12.17;52.33
68197;BME280;55019;49.382;11.358;2023-04-09T08:38:48;97397.94;;;12.56;53.61
68197;BME280;55019;49.382;11.358;2023-04-09T08:41:18;97401.09;;;12.17;53.56
68197;BME280;55019;49.382;11.358;2023-04-09T08:43:45;97397.25;;;13.53;50.87
68197;BME280;55019;49.382;11.358;2023-04-09T08:46:11;97393.69;;;13.70;50.46
68197;BME280;55019;49.382;11.358;2023-04-09T08:48:38;97390.41;;;14.08;48.45
68197;BME280;55019;49.382;11.358;2023-04-09T08:51:06;97396.09;;;14.73;46.58
68197;BME280;55019;49.382;11.358;2023-04-09T08:53:33;97394.84;;;15.30;46.28
68197;BME280;55019;49.382;11.358;2023-04-09T08:56:00;97400.66;;;13.93;46.76
68197;BME280;55019;49.382;11.358;2023-04-09T08:58:26;97397.25;;;14.71;45.52
68197;BME280;55019;49.382;11.358;2023-04-09T09:00:52;97400.16;;;14.22;46.88
68197;BME280;55019;49.382;11.358;2023-04-09T09:03:17;97399.47;;;14.36;45.37
68197;BME280;55019;49.382;11.358;2023-04-09T09:05:45;97397.56;;;14.22;44.73
68197;BME280;55019;49.382;11.358;2023-04-09T09:08:21;97396.91;;;12.83;48.16
68197;BME280;55019;49.382;11.358;2023-04-09T09:10:47;97392.03;;;13.37;47.28
68197;BME280;55019;49.382;11.358;2023-04-09T09:13:26;97395.97;;;12.50;47.52
68197;BME280;55019;49.382;11.358;2023-04-09T09:15:54;97388.31;;;13.39;49.80
68197;BME280;55019;49.382;11.358;2023-04-09T09:18:41;97398.84;;;13.30;46.20
68197;BME280;55019;49.382;11.358;2023-04-09T09:21:14;97389.94;;;13.40;46.23
68197;BME280;55019;49.382;11.358;2023-04-09T09:23:41;97395.78;;;13.66;46.56
68197;BME280;55019;49.382;11.358;2023-04-09T09:26:14;97394.16;;;13.65;46.10
68197;BME280;55019;49.382;11.358;2023-04-09T09:28:44;97399.06;;;12.95;47.51
68197;BME280;55019;49.382;11.358;2023-04-09T09:31:12;97400.31;;;13.48;46.08
68197;BME280;55019;49.382;11.358;2023-04-09T09:33:38;97391.34;;;13.11;47.51
68197;BME280;55019;49.382;11.358;2023-04-09T09:36:04;97399.16;;;13.27;47.64
68197;BME280;55019;49.382;11.358;2023-04-09T09:38:30;97390.34;;;12.71;48.85
68197;BME280;55019;49.382;11.358;2023-04-09T09:40:57;97396.03;;;12.33;48.46
68197;BME280;55019;49.382;11.358;2023-04-09T09:43:23;97398.50;;;13.25;49.84
68197;BME280;55019;49.382;11.358;2023-04-09T09:45:49;97391.78;;;12.98;49.20
68197;BME280;55019;49.382;11.358;2023-04-09T09:48:15;97397.22;;;13.37;47.94
68197;BME280;55019;49.382;11.358;2023-04-09T09:50:41;97393.13;;;14.38;46.44
68197;BME280;55019;49.382;11.358;2023-04-09T09:53:09;97388.09;;;15.13;44.61
68197;BME280;55019;49.382;11.358;2023-04-09T09:55:42;97386.97;;;15.83;42.73
68197;BME280;55019;49.382;11.358;2023-04-09T09:58:22;97384.97;;;16.59;40.73
68197;BME280;55019;49.382;11.358;2023-04-09T10:00:50;97387.63;;;16.51;40.51
68197;BME280;55019;49.382;11.358;2023-04-09T10:03:23;97373.53;;;17.10;37.12
68197;BME280;55019;49.382;11.358;2023-04-09T10:05:50;97375.94;;;16.76;40.09
68197;BME280;55019;49.382;11.358;2023-04-09T10:08:18;97373.97;;;17.69;38.72
68197;BME280;55019;49.382;11.358;2023-04-09T10:10:46;97380.69;;;18.27;37.59
68197;BME280;55019;49.382;11.358;2023-04-09T10:13:27;97374.38;;;16.96;37.31
68197;BME280;55019;49.382;11.358;2023-04-09T10:15:56;97377.94;;;15.93;38.69
68197;BME280;55019;49.382;11.358;2023-04-09T10:18:23;97377.63;;;15.74;39.21
68197;BME280;55019;49.382;11.358;2023-04-09T10:21:39;97380.38;;;13.57;41.50
68197;BME280;55019;49.382;11.358;2023-04-09T10:23:43;97384.16;;;14.56;42.15
68197;BME280;55019;49.382;11.358;2023-04-09T10:26:09;97377.00;;;15.19;41.10
68197;BME280;55019;49.382;11.358;2023-04-09T10:28:38;97382.75;;;15.37;40.99
68197;BME280;55019;49.382;11.358;2023-04-09T10:31:05;97379.50;;;14.20;41.43
68197;BME280;55019;49.382;11.358;2023-04-09T10:33:31;97373.38;;;13.89;39.17
68197;BME280;55019;49.382;11.358;2023-04-09T10:36:03;97381.97;;;13.50;43.83
68197;BME280;55019;49.382;11.358;2023-04-09T10:38:35;97375.47;;;13.94;41.21
68197;BME280;55019;49.382;11.358;2023-04-09T10:41:21;97369.03;;;13.58;42.42
68197;BME280;55019;49.382;11.358;2023-04-09T10:43:48;97367.56;;;14.57;42.69
68197;BME280;55019;49.382;11.358;2023-04-09T10:52:01;97362.28;;;15.93;36.92
68197;BME280;55019;49.382;11.358;2023-04-09T10:57:19;97362.22;;;15.42;37.76
68197;BME280;55019;49.382;11.358;2023-04-09T10:59:50;97357.38;;;15.39;38.43
68197;BME280;55019;49.382;11.358;2023-04-09T11:05:25;97351.16;;;14.49;38.89
68197;BME280;55019;49.382;11.358;2023-04-09T11:07:57;97357.00;;;14.89;38.91
68197;BME280;55019;49.382;11.358;2023-04-09T11:10:27;97350.00;;;15.65;39.48
68197;BME280;55019;49.382;11.358;2023-04-09T11:12:53;97344.22;;;15.02;35.97
68197;BME280;55019;49.382;11.358;2023-04-09T11:15:19;97346.50;;;16.24;38.12
68197;BME280;55019;49.382;11.358;2023-04-09T11:17:46;97341.16;;;16.90;34.50
68197;BME280;55019;49.382;11.358;2023-04-09T11:20:18;97334.31;;;16.89;34.74
68197;BME280;55019;49.382;11.358;2023-04-09T11:22:44;97342.06;;;18.29;34.13
68197;BME280;55019;49.382;11.358;2023-04-09T11:25:17;97330.22;;;18.73;33.10
68197;BME280;55019;49.382;11.358;2023-04-09T11:27:43;97333.28;;;17.60;32.80
68197;BME280;55019;49.382;11.358;2023-04-09T11:30:09;97339.53;;;16.89;33.39
68197;BME280;55019;49.382;11.358;2023-04-09T11:32:35;97341.28;;;16.24;35.28
68197;BME280;55019;49.382;11.358;2023-04-09T11:35:01;97341.69;;;15.84;36.55
68197;BME280;55019;49.382;11.358;2023-04-09T11:37:26;97336.78;;;15.67;37.97
68197;BME280;55019;49.382;11.358;2023-04-09T11:39:52;97341.97;;;15.30;39.02
68197;BME280;55019;49.382;11.358;2023-04-09T11:42:22;97336.47;;;15.47;40.40
68197;BME280;55019;49.382;11.358;2023-04-09T11:44:51;97333.50;;;15.05;38.60
68197;BME280;55019;49.382;11.358;2023-04-09T11:47:17;97333.94;;;15.76;38.78
68197;BME280;55019;49.382;11.358;2023-04-09T11:49:44;97336.03;;;15.95;37.52
68197;BME280;55019;49.382;11.358;2023-04-09T11:52:12;97339.09;;;14.10;38.18
68197;BME280;55019;49.382;11.358;2023-04-09T11:54:41;97337.50;;;14.55;39.93
68197;BME280;55019;49.382;11.358;2023-04-09T11:57:07;97340.38;;;13.98;39.81
68197;BME280;55019;49.382;11.358;2023-04-09T11:59:32;97339.06;;;14.64;40.30
68197;BME280;55019;49.382;11.358;2023-04-09T12:01:58;97335.25;;;15.58;38.93
68197;BME280;55019;49.382;11.358;2023-04-09T12:04:24;97338.25;;;16.49;38.64
68197;BME280;55019;49.382;11.358;2023-04-09T12:06:54;97339.91;;;15.99;37.30
68197;BME280;55019;49.382;11.358;2023-04-09T12:09:20;97337.66;;;14.53;39.58
68197;BME280;55019;49.382;11.358;2023-04-09T12:11:47;97342.84;;;14.92;39.65
68197;BME280;55019;49.382;11.358;2023-04-09T12:14:14;97341.91;;;16.11;39.74
68197;BME280;55019;49.382;11.358;2023-04-09T12:16:41;97337.66;;;17.18;39.71
68197;BME280;55019;49.382;11.358;2023-04-09T12:19:11;97342.13;;;16.68;37.04
68197;BME280;55019;49.382;11.358;2023-04-09T12:21:50;97341.84;;;15.23;38.40
68197;BME280;55019;49.382;11.358;2023-04-09T12:24:17;97331.28;;;15.84;39.63
68197;BME280;55019;49.382;11.358;2023-04-09T12:26:47;97325.47;;;17.25;36.87
68197;BME280;55019;49.382;11.358;2023-04-09T12:29:17;97336.72;;;16.55;36.32
68197;BME280;55019;49.382;11.358;2023-04-09T12:31:44;97331.78;;;15.65;37.16
68197;BME280;55019;49.382;11.358;2023-04-09T12:34:10;97328.16;;;14.68;39.60
68197;BME280;55019;49.382;11.358;2023-04-09T12:36:40;97338.94;;;15.18;39.72
68197;BME280;55019;49.382;11.358;2023-04-09T12:39:09;97331.34;;;15.09;40.98
68197;BME280;55019;49.382;11.358;2023-04-09T12:41:35;97330.34;;;15.40;41.28
68197;BME280;55019;49.382;11.358;2023-04-09T12:44:01;97335.94;;;15.74;40.12
68197;BME280;55019;49.382;11.358;2023-04-09T12:46:27;97333.72;;;17.08;37.63
68197;BME280;55019;49.382;11.358;2023-04-09T12:48:53;97337.44;;;15.46;38.61
68197;BME280;55019;49.382;11.358;2023-04-09T12:51:18;97337.28;;;16.36;37.10
68197;BME280;55019;49.382;11.358;2023-04-09T12:53:45;97332.34;;;16.04;37.57
68197;BME280;55019;49.382;11.358;2023-04-09T12:56:11;97327.38;;;15.66;39.24
68197;BME280;55019;49.382;11.358;2023-04-09T12:58:37;97333.47;;;16.24;39.92
68197;BME280;55019;49.382;11.358;2023-04-09T13:01:04;97319.72;;;16.59;35.82
68197;BME280;55019;49.382;11.358;2023-04-09T13:03:30;97307.09;;;18.36;34.72
68197;BME280;55019;49.382;11.358;2023-04-09T13:05:56;97305.44;;;17.32;34.40
68197;BME280;55019;49.382;11.358;2023-04-09T13:08:22;97305.53;;;17.39;34.62
68197;BME280;55019;49.382;11.358;2023-04-09T13:10:47;97301.00;;;16.70;38.56
68197;BME280;55019;49.382;11.358;2023-04-09T13:13:13;97308.81;;;16.70;37.09
68197;BME280;55019;49.382;11.358;2023-04-09T13:15:40;97306.06;;;16.42;35.89
68197;BME280;55019;49.382;11.358;2023-04-09T13:18:10;97307.66;;;15.86;38.58
68197;BME280;55019;49.382;11.358;2023-04-09T13:20:36;97304.25;;;16.43;37.90
68197;BME280;55019;49.382;11.358;2023-04-09T13:23:02;97298.78;;;17.09;36.75